sensor_id;sensor_type;location;lat;lon;timestamp;pressure;altitude;pressure_sealevel;temperature;humidity
63285;BME280;49409;55.708;37.522;2023-01-28T00:01:43;100054.63;;;5.35;53.51
63285;BME280;49409;55.708;37.522;2023-01-28T00:04:08;100052.13;;;5.26;53.35
63285;BME280;49409;55.708;37.522;2023-01-28T00:06:34;100057.88;;;5.21;53.27
63285;BME280;49409;55.708;37.522;2023-01-28T00:08:59;100051.59;;;5.17;53.89
63285;BME280;49409;55.708;37.522;2023-01-28T00:11:25;100048.75;;;5.10;52.80
63285;BME280;49409;55.708;37.522;2023-01-28T00:13:51;100047.16;;;5.09;53.10
63285;BME280;49409;55.708;37.522;2023-01-28T00:16:16;100049.78;;;5.02;53.86
63285;BME280;49409;55.708;37.522;2023-01-28T00:18:42;100048.69;;;5.06;52.86
63285;BME280;49409;55.708;37.522;2023-01-28T00:21:09;100036.44;;;4.96;53.55
63285;BME280;49409;55.708;37.522;2023-01-28T00:23:36;100045.72;;;5.15;53.19
63285;BME280;49409;55.708;37.522;2023-01-28T00:26:03;100052.63;;;5.09;53.18
63285;BME280;49409;55.708;37.522;2023-01-28T00:28:29;100054.31;;;5.17;53.10
63285;BME280;49409;55.708;37.522;2023-01-28T00:30:54;100053.59;;;5.20;52.42
63285;BME280;49409;55.708;37.522;2023-01-28T00:33:21;100048.91;;;5.21;52.38
63285;BME280;49409;55.708;37.522;2023-01-28T00:35:46;100055.13;;;5.18;53.15
63285;BME280;49409;55.708;37.522;2023-01-28T00:38:12;100055.91;;;5.18;52.58
63285;BME280;49409;55.708;37.522;2023-01-28T00:40:37;100056.94;;;5.10;53.15
63285;BME280;49409;55.708;37.522;2023-01-28T00:43:02;100052.53;;;5.05;53.34
63285;BME280;49409;55.708;37.522;2023-01-28T00:45:28;100054.91;;;5.07;52.51
63285;BME280;49409;55.708;37.522;2023-01-28T00:47:53;100057.78;;;5.14;52.80
63285;BME280;49409;55.708;37.522;2023-01-28T00:50:18;100065.97;;;5.14;53.17
63285;BME280;49409;55.708;37.522;2023-01-28T00:52:46;100067.25;;;5.20;52.04
63285;BME280;49409;55.708;37.522;2023-01-28T00:55:11;100068.03;;;5.21;52.14
63285;BME280;49409;55.708;37.522;2023-01-28T00:57:36;100062.50;;;5.17;52.23
63285;BME280;49409;55.708;37.522;2023-01-28T01:00:02;100064.50;;;5.20;52.49
63285;BME280;49409;55.708;37.522;2023-01-28T01:02:28;100058.31;;;5.23;52.33
63285;BME280;49409;55.708;37.522;2023-01-28T01:04:53;100062.22;;;5.22;52.15
63285;BME280;49409;55.708;37.522;2023-01-28T01:07:28;100064.50;;;5.20;52.09
63285;BME280;49409;55.708;37.522;2023-01-28T01:09:59;100068.50;;;5.26;52.83
63285;BME280;49409;55.708;37.522;2023-01-28T01:12:25;100066.22;;;5.28;52.21
63285;BME280;49409;55.708;37.522;2023-01-28T01:14:50;100073.34;;;5.36;51.65
63285;BME280;49409;55.708;37.522;2023-01-28T01:17:15;100065.44;;;5.28;51.74
63285;BME280;49409;55.708;37.522;2023-01-28T01:19:41;100068.50;;;5.26;51.67
63285;BME280;49409;55.708;37.522;2023-01-28T01:22:06;100071.53;;;5.21;51.92
63285;BME280;49409;55.708;37.522;2023-01-28T01:24:32;100071.28;;;5.07;52.24
63285;BME280;49409;55.708;37.522;2023-01-28T01:26:58;100068.72;;;4.94;52.12
63285;BME280;49409;55.708;37.522;2023-01-28T01:29:23;100075.03;;;4.99;52.49
63285;BME280;49409;55.708;37.522;2023-01-28T01:31:49;100073.44;;;4.97;51.84
63285;BME280;49409;55.708;37.522;2023-01-28T01:34:14;100064.97;;;5.03;51.92
63285;BME280;49409;55.708;37.522;2023-01-28T01:36:39;100066.84;;;4.99;51.44
63285;BME280;49409;55.708;37.522;2023-01-28T01:39:08;100062.06;;;4.92;51.34
63285;BME280;49409;55.708;37.522;2023-01-28T01:41:35;100058.50;;;4.88;51.87
63285;BME280;49409;55.708;37.522;2023-01-28T01:44:02;100061.84;;;4.81;51.74
63285;BME280;49409;55.708;37.522;2023-01-28T01:48:56;100054.25;;;4.90;51.62
63285;BME280;49409;55.708;37.522;2023-01-28T01:51:24;100058.25;;;4.96;51.40
63285;BME280;49409;55.708;37.522;2023-01-28T01:53:53;100052.72;;;4.93;51.39
63285;BME280;49409;55.708;37.522;2023-01-28T01:56:21;100057.59;;;4.84;52.21
63285;BME280;49409;55.708;37.522;2023-01-28T01:58:49;100053.03;;;4.88;51.60
63285;BME280;49409;55.708;37.522;2023-01-28T02:01:19;100057.41;;;4.92;51.83
63285;BME280;49409;55.708;37.522;2023-01-28T02:06:22;100063.88;;;4.84;52.23
63285;BME280;49409;55.708;37.522;2023-01-28T02:08:48;100056.53;;;4.88;51.47
63285;BME280;49409;55.708;37.522;2023-01-28T02:11:13;100063.88;;;4.84;51.60
63285;BME280;49409;55.708;37.522;2023-01-28T02:13:40;100074.78;;;4.84;51.52
63285;BME280;49409;55.708;37.522;2023-01-28T02:16:06;100071.97;;;4.81;51.44
63285;BME280;49409;55.708;37.522;2023-01-28T02:18:33;100069.41;;;4.88;52.12
63285;BME280;49409;55.708;37.522;2023-01-28T02:21:17;100065.09;;;4.87;51.41
63285;BME280;49409;55.708;37.522;2023-01-28T02:26:25;100071.63;;;4.82;52.01
63285;BME280;49409;55.708;37.522;2023-01-28T02:31:51;100074.22;;;4.55;51.93
63285;BME280;49409;55.708;37.522;2023-01-28T02:39:25;100071.91;;;4.57;52.04
63285;BME280;49409;55.708;37.522;2023-01-28T02:41:57;100071.06;;;4.53;52.57
63285;BME280;49409;55.708;37.522;2023-01-28T02:44:23;100074.94;;;4.52;51.96
63285;BME280;49409;55.708;37.522;2023-01-28T02:46:51;100077.34;;;4.57;51.59
63285;BME280;49409;55.708;37.522;2023-01-28T02:49:53;100076.44;;;4.50;52.28
63285;BME280;49409;55.708;37.522;2023-01-28T02:55:33;100087.38;;;4.34;52.98
63285;BME280;49409;55.708;37.522;2023-01-28T03:03:21;100100.16;;;4.30;52.58
63285;BME280;49409;55.708;37.522;2023-01-28T03:05:49;100099.28;;;4.26;52.51
63285;BME280;49409;55.708;37.522;2023-01-28T03:08:39;100101.84;;;4.18;53.22
63285;BME280;49409;55.708;37.522;2023-01-28T03:11:24;100104.56;;;4.18;52.77
63285;BME280;49409;55.708;37.522;2023-01-28T03:14:11;100094.41;;;4.15;52.77
63285;BME280;49409;55.708;37.522;2023-01-28T03:16:55;100094.13;;;4.21;52.69
63285;BME280;49409;55.708;37.522;2023-01-28T03:19:41;100104.06;;;4.13;52.09
63285;BME280;49409;55.708;37.522;2023-01-28T03:22:26;100090.38;;;4.09;52.28
63285;BME280;49409;55.708;37.522;2023-01-28T03:25:10;100097.38;;;4.10;52.68
63285;BME280;49409;55.708;37.522;2023-01-28T03:27:59;100105.88;;;4.25;52.61
63285;BME280;49409;55.708;37.522;2023-01-28T03:30:49;100107.31;;;4.38;51.92
63285;BME280;49409;55.708;37.522;2023-01-28T03:33:35;100100.88;;;4.27;52.07
63285;BME280;49409;55.708;37.522;2023-01-28T03:36:19;100105.16;;;4.28;52.55
63285;BME280;49409;55.708;37.522;2023-01-28T03:39:04;100097.50;;;4.33;51.83
63285;BME280;49409;55.708;37.522;2023-01-28T03:41:29;100099.66;;;4.44;51.46
63285;BME280;49409;55.708;37.522;2023-01-28T03:43:54;100111.34;;;4.44;51.49
63285;BME280;49409;55.708;37.522;2023-01-28T03:46:20;100109.00;;;4.43;51.58
63285;BME280;49409;55.708;37.522;2023-01-28T03:48:45;100112.84;;;4.42;51.40
63285;BME280;49409;55.708;37.522;2023-01-28T03:51:11;100111.28;;;4.41;51.35
63285;BME280;49409;55.708;37.522;2023-01-28T03:53:37;100101.94;;;4.42;51.45
63285;BME280;49409;55.708;37.522;2023-01-28T03:56:03;100104.75;;;4.45;51.60
63285;BME280;49409;55.708;37.522;2023-01-28T03:58:28;100099.56;;;4.40;50.96
63285;BME280;49409;55.708;37.522;2023-01-28T04:01:12;100099.00;;;4.31;51.61
63285;BME280;49409;55.708;37.522;2023-01-28T04:03:38;100101.88;;;4.38;51.94
63285;BME280;49409;55.708;37.522;2023-01-28T04:06:04;100109.63;;;4.36;51.87
63285;BME280;49409;55.708;37.522;2023-01-28T04:08:30;100101.00;;;4.34;51.14
63285;BME280;49409;55.708;37.522;2023-01-28T04:10:55;100106.09;;;4.35;51.70
63285;BME280;49409;55.708;37.522;2023-01-28T04:13:21;100108.47;;;4.37;51.78
63285;BME280;49409;55.708;37.522;2023-01-28T04:15:47;100100.06;;;4.26;51.50
63285;BME280;49409;55.708;37.522;2023-01-28T04:18:12;100100.03;;;4.07;52.10
63285;BME280;49409;55.708;37.522;2023-01-28T04:20:38;100097.13;;;4.15;52.15
63285;BME280;49409;55.708;37.522;2023-01-28T04:23:03;100106.75;;;4.29;51.36
63285;BME280;49409;55.708;37.522;2023-01-28T04:25:29;100100.00;;;4.42;51.98
63285;BME280;49409;55.708;37.522;2023-01-28T04:27:55;100099.03;;;4.50;51.82
63285;BME280;49409;55.708;37.522;2023-01-28T04:30:20;100104.09;;;4.52;50.83
63285;BME280;49409;55.708;37.522;2023-01-28T04:32:46;100103.75;;;4.53;51.22
63285;BME280;49409;55.708;37.522;2023-01-28T04:35:11;100105.19;;;4.47;50.89
63285;BME280;49409;55.708;37.522;2023-01-28T04:37:37;100095.44;;;4.27;51.40
63285;BME280;49409;55.708;37.522;2023-01-28T04:40:02;100096.13;;;4.24;50.84
63285;BME280;49409;55.708;37.522;2023-01-28T04:42:27;100097.06;;;3.96;51.47
63285;BME280;49409;55.708;37.522;2023-01-28T04:44:53;100106.41;;;3.95;52.01
63285;BME280;49409;55.708;37.522;2023-01-28T04:47:18;100102.19;;;3.82;51.85
63285;BME280;49409;55.708;37.522;2023-01-28T04:49:44;100110.78;;;3.84;52.84
63285;BME280;49409;55.708;37.522;2023-01-28T04:52:09;100111.03;;;3.94;51.91
63285;BME280;49409;55.708;37.522;2023-01-28T04:54:35;100098.38;;;4.02;51.88
63285;BME280;49409;55.708;37.522;2023-01-28T04:57:00;100106.41;;;3.95;52.23
63285;BME280;49409;55.708;37.522;2023-01-28T04:59:25;100107.53;;;3.78;51.79
63285;BME280;49409;55.708;37.522;2023-01-28T05:01:50;100117.09;;;3.88;52.12
63285;BME280;49409;55.708;37.522;2023-01-28T05:04:16;100115.19;;;3.72;52.49
63285;BME280;49409;55.708;37.522;2023-01-28T05:06:41;100113.94;;;3.86;51.55
63285;BME280;49409;55.708;37.522;2023-01-28T05:09:07;100109.91;;;3.80;51.65
63285;BME280;49409;55.708;37.522;2023-01-28T05:11:32;100115.16;;;3.88;51.92
63285;BME280;49409;55.708;37.522;2023-01-28T05:13:58;100111.38;;;3.93;51.99
63285;BME280;49409;55.708;37.522;2023-01-28T05:16:23;100128.19;;;3.95;51.74
63285;BME280;49409;55.708;37.522;2023-01-28T05:18:48;100128.19;;;3.95;51.82
63285;BME280;49409;55.708;37.522;2023-01-28T05:21:15;100119.72;;;4.00;51.21
63285;BME280;49409;55.708;37.522;2023-01-28T05:23:41;100131.47;;;4.04;51.22
63285;BME280;49409;55.708;37.522;2023-01-28T05:26:06;100129.63;;;4.08;51.51
63285;BME280;49409;55.708;37.522;2023-01-28T05:28:32;100129.28;;;4.10;51.68
63285;BME280;49409;55.708;37.522;2023-01-28T05:31:01;100135.59;;;4.14;51.13
63285;BME280;49409;55.708;37.522;2023-01-28T05:33:27;100136.38;;;4.14;51.35
63285;BME280;49409;55.708;37.522;2023-01-28T05:35:52;100135.69;;;4.17;51.17
63285;BME280;49409;55.708;37.522;2023-01-28T05:38:17;100137.97;;;4.15;51.26
63285;BME280;49409;55.708;37.522;2023-01-28T05:40:43;100132.53;;;4.15;51.25
63285;BME280;49409;55.708;37.522;2023-01-28T05:43:08;100129.81;;;4.15;50.99
63285;BME280;49409;55.708;37.522;2023-01-28T05:45:34;100138.25;;;3.94;51.11
63285;BME280;49409;55.708;37.522;2023-01-28T05:47:59;100142.03;;;3.90;51.28
63285;BME280;49409;55.708;37.522;2023-01-28T05:50:24;100134.66;;;3.90;51.52
63285;BME280;49409;55.708;37.522;2023-01-28T05:52:50;100133.88;;;3.90;51.55
63285;BME280;49409;55.708;37.522;2023-01-28T05:55:15;100136.94;;;3.88;51.85
63285;BME280;49409;55.708;37.522;2023-01-28T05:57:40;100138.53;;;3.89;51.41
63285;BME280;49409;55.708;37.522;2023-01-28T06:00:09;100139.06;;;3.95;51.47
63285;BME280;49409;55.708;37.522;2023-01-28T06:02:35;100140.72;;;4.00;51.27
63285;BME280;49409;55.708;37.522;2023-01-28T06:05:00;100146.06;;;3.96;50.51
63285;BME280;49409;55.708;37.522;2023-01-28T06:07:26;100140.53;;;3.92;50.46
63285;BME280;49409;55.708;37.522;2023-01-28T06:09:51;100146.78;;;3.93;50.46
63285;BME280;49409;55.708;37.522;2023-01-28T06:12:16;100149.78;;;3.88;50.80
63285;BME280;49409;55.708;37.522;2023-01-28T06:14:43;100144.16;;;3.81;51.38
63285;BME280;49409;55.708;37.522;2023-01-28T06:17:09;100150.47;;;3.85;50.54
63285;BME280;49409;55.708;37.522;2023-01-28T06:19:34;100151.19;;;3.82;50.80
63285;BME280;49409;55.708;37.522;2023-01-28T06:22:00;100156.00;;;3.88;50.51
63285;BME280;49409;55.708;37.522;2023-01-28T06:24:25;100157.94;;;3.88;50.99
63285;BME280;49409;55.708;37.522;2023-01-28T06:26:50;100156.53;;;3.94;50.49
63285;BME280;49409;55.708;37.522;2023-01-28T06:29:16;100157.06;;;4.00;49.91
63285;BME280;49409;55.708;37.522;2023-01-28T06:31:41;100154.69;;;3.98;50.94
63285;BME280;49409;55.708;37.522;2023-01-28T06:34:07;100157.50;;;3.86;50.84
63285;BME280;49409;55.708;37.522;2023-01-28T06:36:33;100159.34;;;3.82;50.31
63285;BME280;49409;55.708;37.522;2023-01-28T06:38:59;100162.06;;;3.82;50.97
63285;BME280;49409;55.708;37.522;2023-01-28T06:41:24;100149.16;;;3.78;50.61
63285;BME280;49409;55.708;37.522;2023-01-28T06:43:50;100162.75;;;3.78;50.71
63285;BME280;49409;55.708;37.522;2023-01-28T06:46:15;100173.75;;;3.82;50.71
63285;BME280;49409;55.708;37.522;2023-01-28T06:48:40;100163.56;;;3.79;50.63
63285;BME280;49409;55.708;37.522;2023-01-28T06:51:06;100160.47;;;3.81;50.97
63285;BME280;49409;55.708;37.522;2023-01-28T06:53:31;100168.06;;;3.87;50.97
63285;BME280;49409;55.708;37.522;2023-01-28T06:55:56;100167.09;;;3.80;50.26
63285;BME280;49409;55.708;37.522;2023-01-28T06:58:22;100166.38;;;3.83;50.46
63285;BME280;49409;55.708;37.522;2023-01-28T07:00:47;100162.94;;;3.86;50.61
63285;BME280;49409;55.708;37.522;2023-01-28T07:03:12;100165.91;;;3.96;51.18
63285;BME280;49409;55.708;37.522;2023-01-28T07:05:38;100171.97;;;4.06;50.69
63285;BME280;49409;55.708;37.522;2023-01-28T07:08:03;100172.84;;;4.10;50.42
63285;BME280;49409;55.708;37.522;2023-01-28T07:10:29;100166.72;;;4.13;50.39
63285;BME280;49409;55.708;37.522;2023-01-28T07:12:54;100177.53;;;4.09;50.33
63285;BME280;49409;55.708;37.522;2023-01-28T07:15:19;100178.81;;;4.15;49.78
63285;BME280;49409;55.708;37.522;2023-01-28T07:17:44;100167.22;;;4.18;50.04
63285;BME280;49409;55.708;37.522;2023-01-28T07:20:11;100171.28;;;4.09;49.84
63285;BME280;49409;55.708;37.522;2023-01-28T07:22:37;100178.22;;;4.06;50.46
63285;BME280;49409;55.708;37.522;2023-01-28T07:25:05;100178.94;;;4.03;49.80
63285;BME280;49409;55.708;37.522;2023-01-28T07:27:30;100177.53;;;4.09;50.23
63285;BME280;49409;55.708;37.522;2023-01-28T07:29:55;100178.66;;;3.92;50.00
63285;BME280;49409;55.708;37.522;2023-01-28T07:32:21;100183.31;;;3.76;50.42
63285;BME280;49409;55.708;37.522;2023-01-28T07:34:46;100182.44;;;3.72;50.54
63285;BME280;49409;55.708;37.522;2023-01-28T07:37:11;100177.00;;;3.88;50.52
63285;BME280;49409;55.708;37.522;2023-01-28T07:39:37;100174.28;;;4.04;50.56
63285;BME280;49409;55.708;37.522;2023-01-28T07:42:02;100172.06;;;4.09;50.49
63285;BME280;49409;55.708;37.522;2023-01-28T07:44:27;100172.22;;;4.16;50.16
63285;BME280;49409;55.708;37.522;2023-01-28T07:46:53;100167.69;;;4.21;50.25
63285;BME280;49409;55.708;37.522;2023-01-28T07:49:18;100161.06;;;4.22;50.17
63285;BME280;49409;55.708;37.522;2023-01-28T07:51:44;100167.28;;;4.22;49.99
63285;BME280;49409;55.708;37.522;2023-01-28T07:54:11;100166.94;;;4.24;50.32
63285;BME280;49409;55.708;37.522;2023-01-28T07:56:36;100166.59;;;4.25;50.18
63285;BME280;49409;55.708;37.522;2023-01-28T07:59:01;100172.91;;;4.29;50.46
63285;BME280;49409;55.708;37.522;2023-01-28T08:01:27;100170.97;;;4.30;49.81
63285;BME280;49409;55.708;37.522;2023-01-28T08:03:52;100166.59;;;4.25;49.84
63285;BME280;49409;55.708;37.522;2023-01-28T08:06:18;100169.94;;;4.18;49.57
63285;BME280;49409;55.708;37.522;2023-01-28T08:08:43;100170.91;;;4.10;49.52
63285;BME280;49409;55.708;37.522;2023-01-28T08:11:09;100171.72;;;4.11;49.85
63285;BME280;49409;55.708;37.522;2023-01-28T08:13:35;100170.81;;;4.07;49.91
63285;BME280;49409;55.708;37.522;2023-01-28T08:16:01;100163.91;;;4.09;50.13
63285;BME280;49409;55.708;37.522;2023-01-28T08:18:26;100172.06;;;4.09;50.18
63285;BME280;49409;55.708;37.522;2023-01-28T08:20:55;100171.78;;;4.14;49.96
63285;BME280;49409;55.708;37.522;2023-01-28T08:23:21;100157.47;;;4.17;50.16
63285;BME280;49409;55.708;37.522;2023-01-28T08:25:47;100169.94;;;4.18;49.94
63285;BME280;49409;55.708;37.522;2023-01-28T08:28:13;100167.38;;;4.26;49.38
63285;BME280;49409;55.708;37.522;2023-01-28T08:30:39;100167.72;;;4.24;49.66
63285;BME280;49409;55.708;37.522;2023-01-28T08:33:08;100166.00;;;4.16;49.78
63285;BME280;49409;55.708;37.522;2023-01-28T08:35:34;100167.31;;;4.06;49.73
63285;BME280;49409;55.708;37.522;2023-01-28T08:38:00;100168.91;;;4.07;50.56
63285;BME280;49409;55.708;37.522;2023-01-28T08:40:25;100164.78;;;4.13;49.63
63285;BME280;49409;55.708;37.522;2023-01-28T08:42:51;100164.94;;;4.21;49.57
63285;BME280;49409;55.708;37.522;2023-01-28T08:45:17;100159.28;;;4.29;49.51
63285;BME280;49409;55.708;37.522;2023-01-28T08:47:47;100155.59;;;4.37;48.93
63285;BME280;49409;55.708;37.522;2023-01-28T08:50:12;100153.72;;;4.42;49.59
63285;BME280;49409;55.708;37.522;2023-01-28T08:52:38;100159.69;;;4.47;49.00
63285;BME280;49409;55.708;37.522;2023-01-28T08:55:03;100157.41;;;4.49;49.27
63285;BME280;49409;55.708;37.522;2023-01-28T08:57:29;100155.09;;;4.51;49.45
63285;BME280;49409;55.708;37.522;2023-01-28T08:59:54;100151.25;;;4.52;49.50
63285;BME280;49409;55.708;37.522;2023-01-28T09:02:19;100147.34;;;4.53;49.28
63285;BME280;49409;55.708;37.522;2023-01-28T09:04:44;100156.06;;;4.59;49.65
63285;BME280;49409;55.708;37.522;2023-01-28T09:07:10;100151.38;;;4.60;48.61
63285;BME280;49409;55.708;37.522;2023-01-28T09:09:35;100147.53;;;4.61;49.55
63285;BME280;49409;55.708;37.522;2023-01-28T09:12:00;100154.19;;;4.63;48.97
63285;BME280;49409;55.708;37.522;2023-01-28T09:14:26;100153.06;;;4.64;48.93
63285;BME280;49409;55.708;37.522;2023-01-28T09:16:52;100144.88;;;4.64;48.57
63285;BME280;49409;55.708;37.522;2023-01-28T09:19:17;100146.25;;;4.74;49.14
63285;BME280;49409;55.708;37.522;2023-01-28T09:21:42;100147.03;;;4.74;49.02
63285;BME280;49409;55.708;37.522;2023-01-28T09:24:11;100145.53;;;4.77;48.10
63285;BME280;49409;55.708;37.522;2023-01-28T09:26:36;100136.63;;;4.80;48.12
63285;BME280;49409;55.708;37.522;2023-01-28T09:29:02;100141.78;;;4.85;48.83
63285;BME280;49409;55.708;37.522;2023-01-28T09:31:27;100132.13;;;4.88;48.93
63285;BME280;49409;55.708;37.522;2023-01-28T09:33:52;100137.69;;;4.95;48.16
63285;BME280;49409;55.708;37.522;2023-01-28T09:36:21;100134.25;;;4.98;48.08
63285;BME280;49409;55.708;37.522;2023-01-28T09:38:47;100140.22;;;5.04;48.46
63285;BME280;49409;55.708;37.522;2023-01-28T09:41:22;100141.06;;;5.08;48.27
63285;BME280;49409;55.708;37.522;2023-01-28T09:46:33;100134.25;;;5.18;47.76
63285;BME280;49409;55.708;37.522;2023-01-28T09:48:59;100132.28;;;5.18;47.82
63285;BME280;49409;55.708;37.522;2023-01-28T09:51:31;100132.28;;;5.18;48.44
63285;BME280;49409;55.708;37.522;2023-01-28T09:54:00;100127.69;;;5.22;47.92
63285;BME280;49409;55.708;37.522;2023-01-28T09:56:31;100135.94;;;5.26;47.93
63285;BME280;49409;55.708;37.522;2023-01-28T09:59:00;100131.97;;;5.23;47.81
63285;BME280;49409;55.708;37.522;2023-01-28T10:01:41;100123.09;;;5.26;47.56
63285;BME280;49409;55.708;37.522;2023-01-28T10:06:45;100123.94;;;5.30;47.59
63285;BME280;49409;55.708;37.522;2023-01-28T10:16:59;100121.53;;;5.25;48.28
63285;BME280;49409;55.708;37.522;2023-01-28T10:19:40;100112.16;;;5.26;47.72
63285;BME280;49409;55.708;37.522;2023-01-28T10:22:28;100114.63;;;5.31;47.86
63285;BME280;49409;55.708;37.522;2023-01-28T10:24:55;100110.00;;;5.35;47.06
63285;BME280;49409;55.708;37.522;2023-01-28T10:27:28;100109.25;;;5.39;47.33
63285;BME280;49409;55.708;37.522;2023-01-28T10:29:54;100111.56;;;5.36;47.18
63285;BME280;49409;55.708;37.522;2023-01-28T10:32:42;100107.34;;;5.39;47.04
63285;BME280;49409;55.708;37.522;2023-01-28T10:35:07;100105.38;;;5.40;47.72
63285;BME280;49409;55.708;37.522;2023-01-28T10:37:33;100097.19;;;5.40;47.42
63285;BME280;49409;55.708;37.522;2023-01-28T10:39:59;100100.03;;;5.47;47.09
63285;BME280;49409;55.708;37.522;2023-01-28T10:42:31;100104.78;;;5.50;47.16
63285;BME280;49409;55.708;37.522;2023-01-28T10:45:00;100098.16;;;5.51;47.24
63285;BME280;49409;55.708;37.522;2023-01-28T10:47:34;100091.56;;;5.52;47.61
63285;BME280;49409;55.708;37.522;2023-01-28T10:50:02;100087.28;;;5.54;46.79
63285;BME280;49409;55.708;37.522;2023-01-28T10:52:29;100086.03;;;5.48;46.94
63285;BME280;49409;55.708;37.522;2023-01-28T10:55:01;100088.41;;;5.50;47.42
63285;BME280;49409;55.708;37.522;2023-01-28T10:57:28;100077.56;;;5.53;46.83
63285;BME280;49409;55.708;37.522;2023-01-28T10:59:53;100077.56;;;5.53;47.32
63285;BME280;49409;55.708;37.522;2023-01-28T11:04:47;100082.66;;;5.55;47.14
63285;BME280;49409;55.708;37.522;2023-01-28T11:07:16;100073.72;;;5.58;47.37
63285;BME280;49409;55.708;37.522;2023-01-28T11:09:49;100077.28;;;5.62;47.30
63285;BME280;49409;55.708;37.522;2023-01-28T11:12:19;100075.41;;;5.66;47.07
63285;BME280;49409;55.708;37.522;2023-01-28T11:14:51;100072.25;;;5.64;46.76
63285;BME280;49409;55.708;37.522;2023-01-28T11:17:17;100071.34;;;5.56;47.39
63285;BME280;49409;55.708;37.522;2023-01-28T11:19:43;100065.09;;;5.56;47.01
63285;BME280;49409;55.708;37.522;2023-01-28T11:22:19;100061.66;;;5.59;47.11
63285;BME280;49409;55.708;37.522;2023-01-28T11:24:46;100059.75;;;5.63;47.15
63285;BME280;49409;55.708;37.522;2023-01-28T11:27:14;100063.34;;;5.67;46.85
63285;BME280;49409;55.708;37.522;2023-01-28T11:29:41;100065.31;;;5.70;46.48
63285;BME280;49409;55.708;37.522;2023-01-28T11:32:17;100069.28;;;5.73;46.77
63285;BME280;49409;55.708;37.522;2023-01-28T11:34:47;100062.28;;;5.75;46.73
63285;BME280;49409;55.708;37.522;2023-01-28T11:37:13;100056.81;;;5.75;46.67
63285;BME280;49409;55.708;37.522;2023-01-28T11:39:42;100045.91;;;5.75;46.95
63285;BME280;49409;55.708;37.522;2023-01-28T11:42:10;100044.72;;;5.76;46.25
63285;BME280;49409;55.708;37.522;2023-01-28T11:44:36;100053.78;;;5.81;46.71
63285;BME280;49409;55.708;37.522;2023-01-28T12:00:02;100032.03;;;5.88;46.58
63285;BME280;49409;55.708;37.522;2023-01-28T12:02:42;100023.41;;;5.86;46.25
63285;BME280;49409;55.708;37.522;2023-01-28T12:05:15;100025.00;;;5.87;46.29
63285;BME280;49409;55.708;37.522;2023-01-28T12:08:47;100021.84;;;5.85;46.08
63285;BME280;49409;55.708;37.522;2023-01-28T12:10:45;100012.50;;;5.86;45.97
63285;BME280;49409;55.708;37.522;2023-01-28T12:14:02;100008.50;;;5.80;45.95
63285;BME280;49409;55.708;37.522;2023-01-28T12:21:27;100008.94;;;5.82;46.11
63285;BME280;49409;55.708;37.522;2023-01-28T12:26:39;100011.78;;;5.89;46.50
63285;BME280;49409;55.708;37.522;2023-01-28T12:29:31;100010.97;;;5.88;45.81
63285;BME280;49409;55.708;37.522;2023-01-28T12:32:02;100013.31;;;5.90;46.21
63285;BME280;49409;55.708;37.522;2023-01-28T12:40:07;100004.72;;;5.88;46.25
63285;BME280;49409;55.708;37.522;2023-01-28T12:42:39;100003.16;;;5.87;45.86
63285;BME280;49409;55.708;37.522;2023-01-28T12:47:41;99994.13;;;5.83;45.91
63285;BME280;49409;55.708;37.522;2023-01-28T12:50:20;99995.63;;;5.80;45.75
63285;BME280;49409;55.708;37.522;2023-01-28T12:52:52;99999.91;;;5.78;46.14
63285;BME280;49409;55.708;37.522;2023-01-28T12:55:24;99987.84;;;5.79;46.50
63285;BME280;49409;55.708;37.522;2023-01-28T12:57:52;99993.72;;;5.81;46.05
63285;BME280;49409;55.708;37.522;2023-01-28T13:00:28;99989.81;;;5.82;46.42
63285;BME280;49409;55.708;37.522;2023-01-28T13:02:59;99992.13;;;5.80;46.13
63285;BME280;49409;55.708;37.522;2023-01-28T13:05:30;99988.25;;;5.81;46.17
63285;BME280;49409;55.708;37.522;2023-01-28T13:08:02;99988.25;;;5.81;46.21
63285;BME280;49409;55.708;37.522;2023-01-28T13:10:45;99990.19;;;5.80;45.90
63285;BME280;49409;55.708;37.522;2023-01-28T13:13:18;99989.41;;;5.80;45.68
63285;BME280;49409;55.708;37.522;2023-01-28T13:15:45;99992.50;;;5.78;46.16
63285;BME280;49409;55.708;37.522;2023-01-28T13:18:28;99988.97;;;5.78;45.92
63285;BME280;49409;55.708;37.522;2023-01-28T13:20:54;99990.88;;;5.73;46.01
63285;BME280;49409;55.708;37.522;2023-01-28T13:24:05;99997.47;;;5.72;46.58
63285;BME280;49409;55.708;37.522;2023-01-28T13:28:42;99992.75;;;5.69;45.73
63285;BME280;49409;55.708;37.522;2023-01-28T13:31:09;99992.75;;;5.69;45.95
63285;BME280;49409;55.708;37.522;2023-01-28T13:33:41;99978.69;;;5.67;46.55
63285;BME280;49409;55.708;37.522;2023-01-28T13:36:52;99987.31;;;5.69;45.83
63285;BME280;49409;55.708;37.522;2023-01-28T13:41:40;99981.06;;;5.69;46.45
63285;BME280;49409;55.708;37.522;2023-01-28T13:44:18;99981.84;;;5.69;46.03
63285;BME280;49409;55.708;37.522;2023-01-28T13:46:44;99980.25;;;5.68;46.14
63285;BME280;49409;55.708;37.522;2023-01-28T13:49:11;99981.84;;;5.69;46.10
63285;BME280;49409;55.708;37.522;2023-01-28T13:51:38;99978.69;;;5.67;46.53
63285;BME280;49409;55.708;37.522;2023-01-28T13:54:13;99976.69;;;5.64;46.02
63285;BME280;49409;55.708;37.522;2023-01-28T13:57:06;99977.06;;;5.63;46.45
63285;BME280;49409;55.708;37.522;2023-01-28T14:01:59;99973.97;;;5.64;46.29
63285;BME280;49409;55.708;37.522;2023-01-28T14:04:38;99965.78;;;5.64;46.55
63285;BME280;49409;55.708;37.522;2023-01-28T14:07:16;99967.00;;;5.67;46.62
63285;BME280;49409;55.708;37.522;2023-01-28T14:17:48;99943.50;;;5.62;45.97
63285;BME280;49409;55.708;37.522;2023-01-28T14:20:32;99950.16;;;5.61;46.34
63285;BME280;49409;55.708;37.522;2023-01-28T14:23:02;99942.38;;;5.63;46.07